Other Surface Observations
Issued by NWS Missoula, MT

Home | Current Version | Previous Version | Text Only | Print | Product List | Glossary On
Versions: 1 2 3 4 5 6 7 8 9 10 11 12 13 14 15 16 17 18 19 20 21 22 23 24 25 26 27 28 29 30 31 32 33 34 35 36 37 38 39 40 41 42 43 44 45 46 47 48 49 50
000
SXUS55 KMSO 290103
OSOMSO
MONTANA AWOS SUMMARY
NATIONAL WEATHER SERVICE MISSOULA MT
703 PM MDT SAT MAY 28 2016

Montana AWOS Reports

PLAINS      |KS34 290055Z AUTO 00000KT 25SM 16/03 A3004 RMK AO1 T01610033
LAUREL      |K6S8 290055Z AUTO 00000KT 40SM 18/03 A2999 RMK AO1 T01780033
ROUNDUP     |KRPX 290055Z AUTO 00000KT 40SM 17/01 A2991 RMK AO1 T01720006
SCOBEY      |K9S2 290055Z AUTO 30005KT 40SM 16/07 A2992 RMK AO1 T01610067
EKALAKA     |K97M 290055Z AUTO 30005KT 40SM 17/05 A2997 RMK AO1 T01720050
TWIN BRIDGES|K7S1 290055Z AUTO 00000KT 40SM 17/M02 A3001 RMK AO1 T01721021




USA.gov is the U.S. government's official web portal to all federal, state and local government web resources and services.